Bridgeport Valley, California Weather observations

Data are for 10 minute period ending at time listed.
 Day   Time   Solar   Ave.   Ave.  Ave.  Vector  Max.   Baro.   Total    
  of    of     Rad.   Air    Rel.  Wind   Wind   Wind  Press.  Precip.   
Year   Day            Temp.  Hum.  Speed  Dir.   Gust                    
2014   (PST)  Kw/m2    F      %     mph   deg.    mph    mb.     in.     
-------------------------------------------------------------------------
 238   20:30   0.00   48.5    57    4.7   244     6.9   806.1    0.00 
 238   20:40   0.00   46.6    62    2.3   203     6.2   806.2    0.00 
 238   20:50   0.00   47.0    60    2.8   194     3.8   806.3    0.00 
 238   21:00   0.00   48.0    56    3.1   199     4.2   806.3    0.00 
 238   21:10   0.00   49.1    53    2.9   236     3.8   806.4    0.00 
 238   21:20   0.00   49.8    50    2.5   207     3.8   806.6    0.00 
 238   21:30   0.00   49.7    50    2.8   184     4.6   806.7    0.00 
 238   21:40   0.00   49.7    49    3.0   232     4.3   806.8    0.00 
 238   21:50   0.00   49.3    50    2.5   200     4.3   806.9    0.00 
 238   22:00   0.00   48.4    52    3.5   231     6.2   807.0    0.00 
 238   22:10   0.00   50.4    47    2.8   220     5.9   807.0    0.00 
 238   22:20   0.00   48.8    50    3.6   172     5.0   807.0    0.00 
 238   22:30   0.00   44.6    61    2.5   201     3.6   807.1    0.00 
 238   22:40   0.00   39.8    75    2.2   243     3.1   807.2    0.00 
 238   22:50   0.00   43.4    65    2.1   234     3.4   807.1    0.00 
 238   23:00   0.00   43.4    64    1.5   281     2.5   807.1    0.00 
 238   23:10   0.00   44.7    60    2.6   231     5.0   807.1    0.00 
 238   23:20   0.00   41.8    65    3.7   226     5.4   807.1    0.00 
 238   23:30   0.00   41.6    66    3.9   210     4.6   807.1    0.00 
 238   23:40   0.00   40.2    70    2.4   247     4.0   807.1    0.00 
 238   23:50   0.00   37.0    79    4.1   211     6.4   807.1    0.00 
 239    0:00   0.00   38.4    76    2.8   235     4.7   807.1    0.00 
 239    0:10   0.00   40.5    70    2.0   237     2.9   807.0    0.00 
 239    0:20   0.00   39.5    70    2.1   207     2.7   807.0    0.00 
 239    0:30   0.00   40.4    67    3.2   230     5.0   807.0    0.00 
 239    0:40   0.00   39.6    68    3.2   202     4.5   807.1    0.00 
 239    0:50   0.00   37.8    74    3.5   240     4.7   807.2    0.00 
 239    1:00   0.00   38.4    71    1.6   204     4.8   807.3    0.00 
 239    1:10   0.00   36.5    75    2.9   150     4.7   807.2    0.00 
 239    1:20   0.00   33.4    82    2.7   176     4.6   807.3    0.00 
 239    1:30   0.00   33.7    84    1.9   261     4.7   807.1    0.00 
 239    1:40   0.00   33.0    85    3.8   258     4.9   807.2    0.00 
 239    1:50   0.00   35.1    80    4.2   240     4.7   807.3    0.00 
 239    2:00   0.00   33.6    81    2.6   243     4.7   807.3    0.00 
 239    2:10   0.00   31.9    85    1.9   207     2.7   807.3    0.00 
 239    2:20   0.00   31.1    89    2.4   215     3.6   807.2    0.00 
 239    2:30   0.00   33.0    87    1.0   247     2.6   807.2    0.00 
 239    2:40   0.00   31.6    87    2.1   292     2.9   807.2    0.00 
 239    2:50   0.00   31.7    87    2.3   262     4.1   807.3    0.00 
 239    3:00   0.00   33.1    83    4.1   216     5.6   807.2    0.00 
 239    3:10   0.00   29.4    89    4.9   241     8.0   807.3    0.00 
 239    3:20   0.00   30.2    89    0.5   228     2.1   807.3    0.00 
 239    3:30   0.00   30.6    87    2.1   242     3.2   807.3    0.00 
 239    3:40   0.00   29.5    92    1.0   274     2.4   807.4    0.00 
 239    3:50   0.00   30.3    91    2.4   214     4.0   807.4    0.00 
 239    4:00   0.00   32.4    86    2.7   207     3.4   807.4    0.00 
 239    4:10   0.00   30.9    88    2.2   226     3.8   807.5    0.00 
 239    4:20   0.00   29.6    87    1.8   164     3.3   807.6    0.00 
 239    4:30   0.00   27.8    92    4.2   223     5.6   807.7    0.00 
 239    4:40   0.00   28.1    92    2.4   273     3.7   807.7    0.00 
 239    4:50   0.00   28.3    92    2.0   295     3.1   807.8    0.00 
 239    5:00   0.00   30.7    90    0.9   244     2.9   807.8    0.00 
 239    5:10   0.00   29.2    87    2.5   213     3.4   808.0    0.00 
 239    5:20   0.00   27.7    91    2.7   239     4.2   808.1    0.00 
 239    5:30   0.01   27.5    93    2.0   298     3.0   808.2    0.00 
 239    5:40   0.01   28.9    92    0.5   296     1.7   808.3    0.00 
 239    5:50   0.03   28.1    88    2.2   202     4.2   808.3    0.00 
 239    6:00   0.08   27.7    90    3.4   174     4.2   808.3    0.00 
 239    6:10   0.02   29.7    90    2.2   232     3.3   808.4    0.00 
 239    6:20   0.13   32.3    88    2.2   264     2.7   808.3    0.00 
 239    6:30   0.16   35.6    85    1.5   236     2.7   808.4    0.00 
 239    6:40   0.19   39.3    78    0.2   233     1.2   808.4    0.00 
 239    6:50   0.23   42.8    70    0.5     2     2.1   808.6    0.00 
 239    7:00   0.26   45.0    66    1.1    27     2.4   808.7    0.00 
 239    7:10   0.30   48.0    59    0.7    58     2.1   808.9    0.00 
 239    7:20   0.34   49.0    59    0.9    41     2.0   809.1    0.00 
 239    7:30   0.37   50.3    58    1.4    68     2.6   809.1    0.00 
 239    7:40   0.41   51.7    54    0.9    42     2.6   809.2    0.00 
 239    7:50   0.44   52.5    52    1.3    50     3.5   809.2    0.00 
 239    8:00   0.48   54.4    50    0.7    38     2.9   809.2    0.00 
 239    8:10   0.51   56.7    48    0.5    11     2.2   809.2    0.00 
 239    8:20   0.55   57.8    46    1.0    66     2.3   809.2    0.00 
 239    8:30   0.58   58.5    45    1.2    44     3.5   809.2    0.00 
 239    8:40   0.61   58.8    45    1.4    40     3.9   809.2    0.00 
 239    8:50   0.64   60.2    43    1.1    23     3.0   809.2    0.00 
 239    9:00   0.67   61.1    39    0.9    47     3.2   809.1    0.00 
 239    9:10   0.70   62.7    38    1.5   331     3.1   809.1    0.00 
 239    9:20   0.72   63.0    40    0.9   345     2.5   808.9    0.00 
 239    9:30   0.75   65.1    39    1.1   271     3.0   808.9    0.00 
 239    9:40   0.78   65.1    38    1.4   318     2.8   808.9    0.00 
 239    9:50   0.80   67.2    38    0.8   322     2.6   808.8    0.00 
 239   10:00   0.82   68.4    33    1.0   353     2.6   808.7    0.00 
 239   10:10   0.84   69.6    28    1.6    32     3.9   808.5    0.00 
 239   10:20   0.86   70.4    28    1.7    34     4.7   808.4    0.00 
 239   10:30   0.88   70.9    27    1.6    17     4.6   808.3    0.00 
 239   10:40   0.89   71.0    27    1.9    52     5.6   808.1    0.00 
 239   10:50   0.91   71.9    25    2.5    73     5.2   808.1    0.00 
 239   11:00   0.92   72.9    21    1.3   113     2.9   808.0    0.00 
 239   11:10   0.93   73.5    22    2.4    69     4.2   807.9    0.00 
 239   11:20   0.94   72.9    22    3.0     9     7.4   807.9    0.00 
 239   11:30   0.95   73.4    22    2.4    77     4.2   807.8    0.00 
 239   11:40   0.94   73.8    22    2.8   333     5.9   807.8    0.00 
 239   11:50   0.95   73.7    22    3.8   318     8.5   807.6    0.00 
 239   12:00   0.96   74.5    22    2.1    46     8.6   807.5    0.00 
 239   12:10   0.96   74.4    21    4.7     2     8.4   807.4    0.00 
 239   12:20   0.96   74.4    20    3.6    24     6.6   807.3    0.00 
 239   12:30   0.95   75.1    19    3.1   101     6.4   807.3    0.00 
 239   12:40   0.95   75.5    19    3.0    52    10.2   807.1    0.00 
 239   12:50   0.94   76.5    17    1.7    84     4.1   807.1    0.00 
 239   13:00   0.93   76.4    19    3.8    21     7.9   807.1    0.00 
 239   13:10   0.92   76.9    18    2.4    32     6.6   807.1    0.00 
 239   13:20   0.91   77.5    19    2.8    33     5.9   807.1    0.00 
 239   13:30   0.89   78.1    19    3.2    38     6.7   807.1    0.00 
 239   13:40   0.87   78.2    20    3.0    39     6.2   807.0    0.00 
 239   13:50   0.85   78.2    17    3.1    47     6.5   806.8    0.00 
 239   14:00   0.83   78.4    17    2.9    76     6.1   806.8    0.00 
 239   14:10   0.81   78.8    19    3.8    19     6.4   806.6    0.00 
 239   14:20   0.79   78.7    17    2.5   309     5.7   806.6    0.00 
 239   14:30   0.77   79.4    17    2.0   343     5.8   806.5    0.00 
 239   14:40   0.73   79.1    16    2.7   333     6.1   806.4    0.00 
 239   14:50   0.71   79.2    19    3.7   347     6.3   806.4    0.00 
 239   15:00   0.69   79.4    17    2.2     9     5.4   806.4    0.00 
 239   15:10   0.66   79.4    17    2.3   100     4.7   806.3    0.00 
 239   15:20   0.63   79.8    19    3.4     0     6.1   806.2    0.00 
 239   15:30   0.60   79.1    20    5.1   359     8.8   806.2    0.00 
 239   15:40   0.52   80.0    16    1.7   346     6.8   806.2    0.00 
 239   15:50   0.53   79.5    19    3.9   354     7.1   806.2    0.00 
 239   16:00   0.50   79.2    19    3.5    25     6.6   806.2    0.00 
 239   16:10   0.47   78.9    22    5.7    14    11.4   806.2    0.00 
 239   16:20   0.43   77.5    25    6.9    12    10.2   806.2    0.00 
 239   16:30   0.40   77.4    25    6.8     4     9.2   806.1    0.00 
 239   16:40   0.36   76.7    29    6.2    10     9.3   806.1    0.00 
 239   16:50   0.33   76.7    28    6.3     9     9.7   806.1    0.00 
 239   17:00   0.29   75.5    29    8.0    16    12.4   806.1    0.00 
 239   17:10   0.26   74.3    30    7.7    17    12.4   806.0    0.00 
 239   17:20   0.22   73.4    31    7.7    21    11.9   805.9    0.00 
 239   17:30   0.19   72.4    30    8.6    19    15.3   805.8    0.00 
 239   17:40   0.16   71.5    32    6.3    13     9.2   805.8    0.00 
 239   17:50   0.13   69.9    35    5.6     9     9.1   805.8    0.00 
 239   18:00   0.10   68.7    36    6.0     9     8.0   805.9    0.00 
 239   18:10   0.06   66.5    38    5.6    10     7.7   806.0    0.00 
 239   18:20   0.01   64.1    38    6.4    14     9.3   806.2    0.00 
 239   18:30   0.01   62.9    39    5.5     6     8.0   806.3    0.00 
 239   18:40   0.01   60.3    43    4.6   357     6.3   806.5    0.00 
 239   18:50   0.00   60.4    42    4.9   346     7.0   806.8    0.00 
 239   19:00   0.00   58.7    46    4.3   327     5.1   806.9    0.00 
 239   19:10   0.00   54.0    53    4.2   238     6.9   807.1    0.00 
 239   19:20   0.00   56.5    45    4.0   243     6.0   807.3    0.00 
 239   19:30   0.00   58.5    38    5.2   257     5.9   807.5    0.00 
 239   19:40   0.00   58.3    37    4.0   251     4.5   807.5    0.00 
 239   19:50   0.00   55.5    44    2.6   258     4.6   807.7    0.00 
 239   20:00   0.00   51.8    53    3.8   174     5.6   807.9    0.00 
 239   20:10   0.00   51.7    53    5.1   216     6.1   808.0    0.00 
 239   20:20   0.00   54.2    46    3.4   208     5.0   808.2    0.00 

Return to Bridgeport Valley graphs page.


Western Regional Climate Center,wrcc@dri.edu